sensor_id;sensor_type;location;lat;lon;timestamp;P1;durP1;ratioP1;P2;durP2;ratioP2
1719;SDS011;857;52.872;9.692;2023-11-19T00:00:06;1.40;;;1.30;;
1719;SDS011;857;52.872;9.692;2023-11-19T00:02:37;1.20;;;1.10;;
1719;SDS011;857;52.872;9.692;2023-11-19T00:05:04;1.37;;;1.27;;
1719;SDS011;857;52.872;9.692;2023-11-19T00:07:36;1.53;;;0.97;;
1719;SDS011;857;52.872;9.692;2023-11-19T00:10:05;1.80;;;1.20;;
1719;SDS011;857;52.872;9.692;2023-11-19T00:12:35;1.50;;;1.20;;
1719;SDS011;857;52.872;9.692;2023-11-19T00:15:03;1.10;;;1.00;;
1719;SDS011;857;52.872;9.692;2023-11-19T00:17:31;1.30;;;0.77;;
1719;SDS011;857;52.872;9.692;2023-11-19T00:19:59;2.53;;;1.30;;
1719;SDS011;857;52.872;9.692;2023-11-19T00:22:26;1.57;;;1.20;;
1719;SDS011;857;52.872;9.692;2023-11-19T00:24:55;0.93;;;0.90;;
1719;SDS011;857;52.872;9.692;2023-11-19T00:27:23;1.17;;;1.07;;
1719;SDS011;857;52.872;9.692;2023-11-19T00:29:51;1.30;;;1.13;;
1719;SDS011;857;52.872;9.692;2023-11-19T00:32:19;1.00;;;1.00;;
1719;SDS011;857;52.872;9.692;2023-11-19T00:34:46;1.50;;;1.20;;
1719;SDS011;857;52.872;9.692;2023-11-19T00:37:14;1.17;;;1.07;;
1719;SDS011;857;52.872;9.692;2023-11-19T00:39:42;1.40;;;1.30;;
1719;SDS011;857;52.872;9.692;2023-11-19T00:42:12;1.40;;;1.30;;
1719;SDS011;857;52.872;9.692;2023-11-19T00:44:40;1.30;;;1.20;;
1719;SDS011;857;52.872;9.692;2023-11-19T00:47:08;1.27;;;1.17;;
1719;SDS011;857;52.872;9.692;2023-11-19T00:49:36;1.37;;;1.23;;
1719;SDS011;857;52.872;9.692;2023-11-19T00:52:04;1.30;;;1.20;;
1719;SDS011;857;52.872;9.692;2023-11-19T00:54:32;1.30;;;1.20;;
1719;SDS011;857;52.872;9.692;2023-11-19T00:57:00;1.63;;;1.53;;
1719;SDS011;857;52.872;9.692;2023-11-19T00:59:29;2.47;;;2.00;;
1719;SDS011;857;52.872;9.692;2023-11-19T01:01:57;1.37;;;1.27;;
1719;SDS011;857;52.872;9.692;2023-11-19T01:04:28;1.93;;;1.80;;
1719;SDS011;857;52.872;9.692;2023-11-19T01:06:56;2.60;;;1.73;;
1719;SDS011;857;52.872;9.692;2023-11-19T01:09:24;2.10;;;1.90;;
1719;SDS011;857;52.872;9.692;2023-11-19T01:11:53;2.20;;;2.03;;
1719;SDS011;857;52.872;9.692;2023-11-19T01:14:21;2.47;;;1.83;;
1719;SDS011;857;52.872;9.692;2023-11-19T01:16:50;2.03;;;1.90;;
1719;SDS011;857;52.872;9.692;2023-11-19T01:19:22;2.73;;;2.50;;
1719;SDS011;857;52.872;9.692;2023-11-19T01:21:50;2.50;;;2.30;;
1719;SDS011;857;52.872;9.692;2023-11-19T01:24:18;2.40;;;2.20;;
1719;SDS011;857;52.872;9.692;2023-11-19T01:26:46;3.00;;;2.70;;
1719;SDS011;857;52.872;9.692;2023-11-19T01:29:14;2.20;;;2.00;;
1719;SDS011;857;52.872;9.692;2023-11-19T01:31:42;3.03;;;2.30;;
1719;SDS011;857;52.872;9.692;2023-11-19T01:34:12;3.73;;;2.27;;
1719;SDS011;857;52.872;9.692;2023-11-19T01:36:40;2.70;;;2.50;;
1719;SDS011;857;52.872;9.692;2023-11-19T01:39:07;2.87;;;2.57;;
1719;SDS011;857;52.872;9.692;2023-11-19T01:41:35;3.23;;;2.93;;
1719;SDS011;857;52.872;9.692;2023-11-19T01:44:05;3.00;;;2.50;;
1719;SDS011;857;52.872;9.692;2023-11-19T01:46:32;2.77;;;2.47;;
1719;SDS011;857;52.872;9.692;2023-11-19T01:49:00;2.93;;;2.50;;
1719;SDS011;857;52.872;9.692;2023-11-19T01:51:29;6.30;;;2.57;;
1719;SDS011;857;52.872;9.692;2023-11-19T01:53:57;3.17;;;2.40;;
1719;SDS011;857;52.872;9.692;2023-11-19T01:56:25;2.60;;;2.10;;
1719;SDS011;857;52.872;9.692;2023-11-19T01:58:56;2.50;;;2.23;;
1719;SDS011;857;52.872;9.692;2023-11-19T02:01:25;2.47;;;2.10;;
1719;SDS011;857;52.872;9.692;2023-11-19T02:03:55;3.17;;;2.87;;
1719;SDS011;857;52.872;9.692;2023-11-19T02:06:24;3.70;;;2.30;;
1719;SDS011;857;52.872;9.692;2023-11-19T02:08:53;2.93;;;2.27;;
1719;SDS011;857;52.872;9.692;2023-11-19T02:11:21;2.80;;;2.10;;
1719;SDS011;857;52.872;9.692;2023-11-19T02:13:49;3.67;;;2.70;;
1719;SDS011;857;52.872;9.692;2023-11-19T02:16:17;2.30;;;2.10;;
1719;SDS011;857;52.872;9.692;2023-11-19T02:18:45;3.80;;;3.07;;
1719;SDS011;857;52.872;9.692;2023-11-19T02:21:12;3.17;;;2.63;;
1719;SDS011;857;52.872;9.692;2023-11-19T02:23:40;3.37;;;3.07;;
1719;SDS011;857;52.872;9.692;2023-11-19T02:26:12;4.07;;;2.40;;
1719;SDS011;857;52.872;9.692;2023-11-19T02:28:42;3.47;;;2.70;;
1719;SDS011;857;52.872;9.692;2023-11-19T02:31:10;3.60;;;2.53;;
1719;SDS011;857;52.872;9.692;2023-11-19T02:33:38;3.00;;;2.53;;
1719;SDS011;857;52.872;9.692;2023-11-19T02:36:06;2.70;;;2.23;;
1719;SDS011;857;52.872;9.692;2023-11-19T02:38:34;3.10;;;2.30;;
1719;SDS011;857;52.872;9.692;2023-11-19T02:41:03;2.73;;;2.37;;
1719;SDS011;857;52.872;9.692;2023-11-19T02:43:31;2.70;;;2.03;;
1719;SDS011;857;52.872;9.692;2023-11-19T02:46:01;2.73;;;2.40;;
1719;SDS011;857;52.872;9.692;2023-11-19T02:48:32;3.07;;;2.30;;
1719;SDS011;857;52.872;9.692;2023-11-19T02:51:00;4.47;;;3.20;;
1719;SDS011;857;52.872;9.692;2023-11-19T02:53:29;4.93;;;3.00;;
1719;SDS011;857;52.872;9.692;2023-11-19T02:55:57;3.70;;;3.00;;
1719;SDS011;857;52.872;9.692;2023-11-19T02:58:31;4.20;;;3.30;;
1719;SDS011;857;52.872;9.692;2023-11-19T03:01:01;4.07;;;2.90;;
1719;SDS011;857;52.872;9.692;2023-11-19T03:03:38;3.30;;;3.00;;
1719;SDS011;857;52.872;9.692;2023-11-19T03:06:06;5.30;;;3.57;;
1719;SDS011;857;52.872;9.692;2023-11-19T03:08:35;4.43;;;3.23;;
1719;SDS011;857;52.872;9.692;2023-11-19T03:11:03;5.50;;;3.30;;
1719;SDS011;857;52.872;9.692;2023-11-19T03:13:31;6.63;;;4.20;;
1719;SDS011;857;52.872;9.692;2023-11-19T03:15:59;4.90;;;3.60;;
1719;SDS011;857;52.872;9.692;2023-11-19T03:18:28;9.13;;;4.00;;
1719;SDS011;857;52.872;9.692;2023-11-19T03:20:55;6.10;;;4.40;;
1719;SDS011;857;52.872;9.692;2023-11-19T03:23:24;5.53;;;3.90;;
1719;SDS011;857;52.872;9.692;2023-11-19T03:25:53;6.80;;;4.73;;
1719;SDS011;857;52.872;9.692;2023-11-19T03:28:22;7.13;;;4.67;;
1719;SDS011;857;52.872;9.692;2023-11-19T03:30:50;7.33;;;4.30;;
1719;SDS011;857;52.872;9.692;2023-11-19T03:33:18;7.13;;;4.53;;
1719;SDS011;857;52.872;9.692;2023-11-19T03:35:47;6.93;;;4.97;;
1719;SDS011;857;52.872;9.692;2023-11-19T03:38:17;10.63;;;5.87;;
1719;SDS011;857;52.872;9.692;2023-11-19T03:40:45;7.23;;;4.80;;
1719;SDS011;857;52.872;9.692;2023-11-19T03:43:13;11.00;;;5.70;;
1719;SDS011;857;52.872;9.692;2023-11-19T03:45:41;9.80;;;5.43;;
1719;SDS011;857;52.872;9.692;2023-11-19T03:48:11;8.97;;;5.50;;
1719;SDS011;857;52.872;9.692;2023-11-19T03:50:41;9.80;;;5.53;;
1719;SDS011;857;52.872;9.692;2023-11-19T03:53:11;8.60;;;5.67;;
1719;SDS011;857;52.872;9.692;2023-11-19T03:55:39;9.40;;;5.67;;
1719;SDS011;857;52.872;9.692;2023-11-19T03:58:06;6.63;;;4.43;;
1719;SDS011;857;52.872;9.692;2023-11-19T04:00:34;9.10;;;6.13;;
1719;SDS011;857;52.872;9.692;2023-11-19T04:03:02;9.37;;;6.33;;
1719;SDS011;857;52.872;9.692;2023-11-19T04:05:30;9.60;;;5.90;;
1719;SDS011;857;52.872;9.692;2023-11-19T04:07:58;11.57;;;6.77;;
1719;SDS011;857;52.872;9.692;2023-11-19T04:10:27;11.33;;;5.80;;
1719;SDS011;857;52.872;9.692;2023-11-19T04:12:56;11.10;;;6.70;;
1719;SDS011;857;52.872;9.692;2023-11-19T04:15:23;12.50;;;6.87;;
1719;SDS011;857;52.872;9.692;2023-11-19T04:17:51;11.00;;;7.40;;
1719;SDS011;857;52.872;9.692;2023-11-19T04:20:21;10.87;;;6.90;;
1719;SDS011;857;52.872;9.692;2023-11-19T04:22:49;14.13;;;6.70;;
1719;SDS011;857;52.872;9.692;2023-11-19T04:25:17;18.23;;;9.20;;
1719;SDS011;857;52.872;9.692;2023-11-19T04:27:47;14.70;;;8.30;;
1719;SDS011;857;52.872;9.692;2023-11-19T04:30:15;14.43;;;6.60;;
1719;SDS011;857;52.872;9.692;2023-11-19T04:32:43;16.33;;;9.40;;
1719;SDS011;857;52.872;9.692;2023-11-19T04:35:10;10.03;;;4.23;;
1719;SDS011;857;52.872;9.692;2023-11-19T04:37:38;12.27;;;6.80;;
1719;SDS011;857;52.872;9.692;2023-11-19T04:40:06;11.83;;;7.27;;
1719;SDS011;857;52.872;9.692;2023-11-19T04:42:34;16.40;;;9.23;;
1719;SDS011;857;52.872;9.692;2023-11-19T04:45:03;19.43;;;10.43;;
1719;SDS011;857;52.872;9.692;2023-11-19T04:47:32;16.03;;;9.10;;
1719;SDS011;857;52.872;9.692;2023-11-19T04:50:00;20.77;;;12.30;;
1719;SDS011;857;52.872;9.692;2023-11-19T04:52:28;4.23;;;2.87;;
1719;SDS011;857;52.872;9.692;2023-11-19T04:54:56;22.80;;;12.60;;
1719;SDS011;857;52.872;9.692;2023-11-19T04:57:23;18.47;;;10.90;;
1719;SDS011;857;52.872;9.692;2023-11-19T04:59:51;20.00;;;12.10;;
1719;SDS011;857;52.872;9.692;2023-11-19T05:02:20;28.10;;;13.10;;
1719;SDS011;857;52.872;9.692;2023-11-19T05:04:48;23.63;;;11.60;;
1719;SDS011;857;52.872;9.692;2023-11-19T05:07:15;11.63;;;7.00;;
1719;SDS011;857;52.872;9.692;2023-11-19T05:09:43;20.83;;;12.13;;
1719;SDS011;857;52.872;9.692;2023-11-19T05:12:11;14.60;;;8.57;;
1719;SDS011;857;52.872;9.692;2023-11-19T05:14:38;15.67;;;8.73;;
1719;SDS011;857;52.872;9.692;2023-11-19T05:17:06;23.93;;;13.67;;
1719;SDS011;857;52.872;9.692;2023-11-19T05:19:35;7.90;;;4.30;;
1719;SDS011;857;52.872;9.692;2023-11-19T05:22:03;16.53;;;9.00;;
1719;SDS011;857;52.872;9.692;2023-11-19T05:24:32;23.20;;;12.37;;
1719;SDS011;857;52.872;9.692;2023-11-19T05:27:01;26.07;;;13.87;;
1719;SDS011;857;52.872;9.692;2023-11-19T05:29:29;27.00;;;13.83;;
1719;SDS011;857;52.872;9.692;2023-11-19T05:31:56;25.47;;;13.07;;
1719;SDS011;857;52.872;9.692;2023-11-19T05:34:24;23.93;;;13.93;;
1719;SDS011;857;52.872;9.692;2023-11-19T05:36:53;22.07;;;12.13;;
1719;SDS011;857;52.872;9.692;2023-11-19T05:39:21;29.10;;;14.10;;
1719;SDS011;857;52.872;9.692;2023-11-19T05:41:49;20.83;;;11.60;;
1719;SDS011;857;52.872;9.692;2023-11-19T05:44:17;16.00;;;6.70;;
1719;SDS011;857;52.872;9.692;2023-11-19T05:46:44;11.60;;;7.03;;
1719;SDS011;857;52.872;9.692;2023-11-19T05:49:14;23.77;;;13.17;;
1719;SDS011;857;52.872;9.692;2023-11-19T05:51:42;27.13;;;16.50;;
1719;SDS011;857;52.872;9.692;2023-11-19T05:54:11;27.33;;;14.87;;
1719;SDS011;857;52.872;9.692;2023-11-19T05:56:39;17.50;;;9.17;;
1719;SDS011;857;52.872;9.692;2023-11-19T05:59:07;28.30;;;14.57;;
1719;SDS011;857;52.872;9.692;2023-11-19T06:01:40;18.23;;;10.60;;
1719;SDS011;857;52.872;9.692;2023-11-19T06:04:08;26.53;;;14.00;;
1719;SDS011;857;52.872;9.692;2023-11-19T06:06:35;30.13;;;15.30;;
1719;SDS011;857;52.872;9.692;2023-11-19T06:09:03;15.57;;;7.00;;
1719;SDS011;857;52.872;9.692;2023-11-19T06:11:33;18.70;;;9.73;;
1719;SDS011;857;52.872;9.692;2023-11-19T06:14:01;9.63;;;6.23;;
1719;SDS011;857;52.872;9.692;2023-11-19T06:16:31;29.10;;;14.80;;
1719;SDS011;857;52.872;9.692;2023-11-19T06:18:58;28.43;;;12.37;;
1719;SDS011;857;52.872;9.692;2023-11-19T06:21:26;20.83;;;10.73;;
1719;SDS011;857;52.872;9.692;2023-11-19T06:23:54;13.77;;;7.10;;
1719;SDS011;857;52.872;9.692;2023-11-19T06:26:21;20.33;;;10.33;;
1719;SDS011;857;52.872;9.692;2023-11-19T06:28:50;28.10;;;13.87;;
1719;SDS011;857;52.872;9.692;2023-11-19T06:31:18;10.63;;;5.40;;
1719;SDS011;857;52.872;9.692;2023-11-19T06:33:46;29.00;;;14.60;;
1719;SDS011;857;52.872;9.692;2023-11-19T06:36:14;22.97;;;11.13;;
1719;SDS011;857;52.872;9.692;2023-11-19T06:38:43;24.77;;;11.90;;
1719;SDS011;857;52.872;9.692;2023-11-19T06:41:10;24.57;;;12.27;;
1719;SDS011;857;52.872;9.692;2023-11-19T06:43:38;23.03;;;11.00;;
1719;SDS011;857;52.872;9.692;2023-11-19T06:46:13;11.30;;;5.60;;
1719;SDS011;857;52.872;9.692;2023-11-19T06:48:41;23.77;;;8.63;;
1719;SDS011;857;52.872;9.692;2023-11-19T06:51:09;17.00;;;8.70;;
1719;SDS011;857;52.872;9.692;2023-11-19T06:53:37;15.60;;;8.10;;
1719;SDS011;857;52.872;9.692;2023-11-19T06:56:06;26.13;;;10.23;;
1719;SDS011;857;52.872;9.692;2023-11-19T06:58:35;13.77;;;6.50;;
1719;SDS011;857;52.872;9.692;2023-11-19T07:01:06;20.30;;;9.43;;
1719;SDS011;857;52.872;9.692;2023-11-19T07:03:36;18.70;;;8.77;;
1719;SDS011;857;52.872;9.692;2023-11-19T07:06:03;19.40;;;6.77;;
1719;SDS011;857;52.872;9.692;2023-11-19T07:08:31;16.50;;;8.13;;
1719;SDS011;857;52.872;9.692;2023-11-19T07:10:59;20.97;;;10.10;;
1719;SDS011;857;52.872;9.692;2023-11-19T07:13:27;27.70;;;9.20;;
1719;SDS011;857;52.872;9.692;2023-11-19T07:15:55;13.00;;;6.10;;
1719;SDS011;857;52.872;9.692;2023-11-19T07:18:23;31.00;;;9.50;;
1719;SDS011;857;52.872;9.692;2023-11-19T07:20:53;20.03;;;8.57;;
1719;SDS011;857;52.872;9.692;2023-11-19T07:23:21;13.50;;;6.50;;
1719;SDS011;857;52.872;9.692;2023-11-19T07:25:48;27.30;;;9.13;;
1719;SDS011;857;52.872;9.692;2023-11-19T07:28:19;17.67;;;6.40;;
1719;SDS011;857;52.872;9.692;2023-11-19T07:30:46;12.60;;;6.77;;
1719;SDS011;857;52.872;9.692;2023-11-19T07:33:15;19.87;;;7.73;;
1719;SDS011;857;52.872;9.692;2023-11-19T07:35:42;11.80;;;5.27;;
1719;SDS011;857;52.872;9.692;2023-11-19T07:38:11;20.97;;;7.73;;
1719;SDS011;857;52.872;9.692;2023-11-19T07:40:39;13.63;;;5.53;;
1719;SDS011;857;52.872;9.692;2023-11-19T07:43:07;17.87;;;7.47;;
1719;SDS011;857;52.872;9.692;2023-11-19T07:45:34;17.10;;;7.03;;
1719;SDS011;857;52.872;9.692;2023-11-19T07:48:02;10.60;;;5.30;;
1719;SDS011;857;52.872;9.692;2023-11-19T07:50:31;19.07;;;7.13;;
1719;SDS011;857;52.872;9.692;2023-11-19T07:52:59;22.67;;;7.00;;
1719;SDS011;857;52.872;9.692;2023-11-19T07:55:29;15.47;;;4.80;;
1719;SDS011;857;52.872;9.692;2023-11-19T07:57:56;18.90;;;6.43;;
1719;SDS011;857;52.872;9.692;2023-11-19T08:00:24;13.80;;;5.00;;
1719;SDS011;857;52.872;9.692;2023-11-19T08:02:52;21.30;;;6.07;;
1719;SDS011;857;52.872;9.692;2023-11-19T08:05:19;21.27;;;6.10;;
1719;SDS011;857;52.872;9.692;2023-11-19T08:07:49;18.47;;;5.97;;
1719;SDS011;857;52.872;9.692;2023-11-19T08:10:17;17.60;;;5.90;;
1719;SDS011;857;52.872;9.692;2023-11-19T08:12:46;6.43;;;4.00;;
1719;SDS011;857;52.872;9.692;2023-11-19T08:15:14;12.93;;;4.50;;
1719;SDS011;857;52.872;9.692;2023-11-19T08:17:42;13.67;;;5.43;;
1719;SDS011;857;52.872;9.692;2023-11-19T08:20:10;19.50;;;6.50;;
1719;SDS011;857;52.872;9.692;2023-11-19T08:22:37;23.10;;;5.70;;
1719;SDS011;857;52.872;9.692;2023-11-19T08:25:05;22.40;;;6.87;;
1719;SDS011;857;52.872;9.692;2023-11-19T08:27:33;21.20;;;6.30;;
1719;SDS011;857;52.872;9.692;2023-11-19T08:30:03;13.00;;;4.77;;
1719;SDS011;857;52.872;9.692;2023-11-19T08:32:31;21.83;;;5.23;;
1719;SDS011;857;52.872;9.692;2023-11-19T08:34:59;14.53;;;4.80;;
1719;SDS011;857;52.872;9.692;2023-11-19T08:37:27;18.83;;;5.10;;
1719;SDS011;857;52.872;9.692;2023-11-19T08:39:54;19.70;;;5.83;;
1719;SDS011;857;52.872;9.692;2023-11-19T08:42:23;22.73;;;6.20;;
1719;SDS011;857;52.872;9.692;2023-11-19T08:44:50;17.57;;;5.47;;
1719;SDS011;857;52.872;9.692;2023-11-19T08:47:21;14.83;;;5.00;;
1719;SDS011;857;52.872;9.692;2023-11-19T08:49:50;25.90;;;6.97;;
1719;SDS011;857;52.872;9.692;2023-11-19T08:52:29;22.87;;;5.80;;
1719;SDS011;857;52.872;9.692;2023-11-19T08:55:12;14.10;;;4.70;;
1719;SDS011;857;52.872;9.692;2023-11-19T08:58:25;15.53;;;4.73;;
1719;SDS011;857;52.872;9.692;2023-11-19T09:01:01;11.30;;;4.40;;
1719;SDS011;857;52.872;9.692;2023-11-19T09:03:32;11.83;;;4.60;;
1719;SDS011;857;52.872;9.692;2023-11-19T09:06:00;13.93;;;3.27;;
1719;SDS011;857;52.872;9.692;2023-11-19T09:08:28;25.20;;;4.23;;
1719;SDS011;857;52.872;9.692;2023-11-19T09:10:55;9.33;;;3.43;;
1719;SDS011;857;52.872;9.692;2023-11-19T09:13:23;6.70;;;2.97;;
1719;SDS011;857;52.872;9.692;2023-11-19T09:15:51;15.80;;;3.70;;
1719;SDS011;857;52.872;9.692;2023-11-19T09:18:19;12.10;;;3.30;;
1719;SDS011;857;52.872;9.692;2023-11-19T09:20:48;12.63;;;3.70;;
1719;SDS011;857;52.872;9.692;2023-11-19T09:23:15;10.83;;;3.30;;
1719;SDS011;857;52.872;9.692;2023-11-19T09:25:43;8.23;;;2.80;;
1719;SDS011;857;52.872;9.692;2023-11-19T09:28:11;7.00;;;2.93;;
1719;SDS011;857;52.872;9.692;2023-11-19T09:30:39;10.17;;;3.13;;
1719;SDS011;857;52.872;9.692;2023-11-19T09:33:07;16.17;;;3.73;;
1719;SDS011;857;52.872;9.692;2023-11-19T09:35:35;6.93;;;2.80;;
1719;SDS011;857;52.872;9.692;2023-11-19T09:38:04;10.27;;;3.20;;
1719;SDS011;857;52.872;9.692;2023-11-19T09:40:32;18.37;;;4.60;;
1719;SDS011;857;52.872;9.692;2023-11-19T09:42:59;15.77;;;3.27;;
1719;SDS011;857;52.872;9.692;2023-11-19T09:45:27;18.67;;;3.43;;
1719;SDS011;857;52.872;9.692;2023-11-19T09:47:55;10.70;;;2.93;;
1719;SDS011;857;52.872;9.692;2023-11-19T09:50:24;12.23;;;4.13;;
1719;SDS011;857;52.872;9.692;2023-11-19T09:52:52;15.60;;;4.13;;
1719;SDS011;857;52.872;9.692;2023-11-19T09:55:21;22.03;;;4.53;;
1719;SDS011;857;52.872;9.692;2023-11-19T09:57:48;18.37;;;5.13;;
1719;SDS011;857;52.872;9.692;2023-11-19T10:00:18;11.87;;;4.03;;
1719;SDS011;857;52.872;9.692;2023-11-19T10:02:46;14.40;;;5.30;;
1719;SDS011;857;52.872;9.692;2023-11-19T10:05:14;13.10;;;3.90;;
1719;SDS011;857;52.872;9.692;2023-11-19T10:07:42;17.20;;;4.63;;
1719;SDS011;857;52.872;9.692;2023-11-19T10:10:10;20.53;;;4.87;;
1719;SDS011;857;52.872;9.692;2023-11-19T10:12:42;14.87;;;3.60;;
1719;SDS011;857;52.872;9.692;2023-11-19T10:15:10;17.57;;;4.77;;
1719;SDS011;857;52.872;9.692;2023-11-19T10:17:44;8.73;;;3.00;;
1719;SDS011;857;52.872;9.692;2023-11-19T10:20:12;16.13;;;4.60;;
1719;SDS011;857;52.872;9.692;2023-11-19T10:22:39;10.43;;;3.67;;
1719;SDS011;857;52.872;9.692;2023-11-19T10:25:10;15.00;;;4.20;;
1719;SDS011;857;52.872;9.692;2023-11-19T10:27:50;15.83;;;5.60;;
1719;SDS011;857;52.872;9.692;2023-11-19T10:30:18;11.43;;;4.07;;
1719;SDS011;857;52.872;9.692;2023-11-19T10:32:45;11.73;;;3.93;;
1719;SDS011;857;52.872;9.692;2023-11-19T10:35:13;17.97;;;4.50;;
1719;SDS011;857;52.872;9.692;2023-11-19T10:37:41;16.53;;;4.60;;
1719;SDS011;857;52.872;9.692;2023-11-19T10:40:09;18.50;;;5.40;;
1719;SDS011;857;52.872;9.692;2023-11-19T10:42:37;21.40;;;4.73;;
1719;SDS011;857;52.872;9.692;2023-11-19T10:45:08;21.07;;;5.00;;
1719;SDS011;857;52.872;9.692;2023-11-19T10:47:49;21.33;;;5.07;;
1719;SDS011;857;52.872;9.692;2023-11-19T10:50:17;20.63;;;4.70;;
1719;SDS011;857;52.872;9.692;2023-11-19T10:52:45;17.80;;;5.00;;
1719;SDS011;857;52.872;9.692;2023-11-19T10:55:14;21.27;;;4.80;;
1719;SDS011;857;52.872;9.692;2023-11-19T10:57:43;18.00;;;5.30;;
1719;SDS011;857;52.872;9.692;2023-11-19T11:00:12;23.10;;;5.70;;
1719;SDS011;857;52.872;9.692;2023-11-19T11:02:45;16.10;;;4.90;;
1719;SDS011;857;52.872;9.692;2023-11-19T11:05:16;13.70;;;4.90;;
1719;SDS011;857;52.872;9.692;2023-11-19T11:07:45;23.57;;;5.43;;
1719;SDS011;857;52.872;9.692;2023-11-19T11:10:12;27.73;;;5.17;;
1719;SDS011;857;52.872;9.692;2023-11-19T11:12:41;19.27;;;4.20;;
1719;SDS011;857;52.872;9.692;2023-11-19T11:15:10;22.10;;;4.27;;
1719;SDS011;857;52.872;9.692;2023-11-19T11:17:40;20.60;;;5.43;;
1719;SDS011;857;52.872;9.692;2023-11-19T11:20:09;14.70;;;4.33;;
1719;SDS011;857;52.872;9.692;2023-11-19T11:22:42;19.53;;;4.93;;
1719;SDS011;857;52.872;9.692;2023-11-19T11:25:18;19.53;;;4.20;;
1719;SDS011;857;52.872;9.692;2023-11-19T11:27:49;22.13;;;5.53;;
1719;SDS011;857;52.872;9.692;2023-11-19T11:30:24;17.07;;;4.67;;
1719;SDS011;857;52.872;9.692;2023-11-19T11:33:01;22.13;;;5.20;;
1719;SDS011;857;52.872;9.692;2023-11-19T11:35:33;15.03;;;3.83;;
1719;SDS011;857;52.872;9.692;2023-11-19T11:38:06;25.17;;;5.40;;
1719;SDS011;857;52.872;9.692;2023-11-19T11:40:34;13.97;;;3.40;;
1719;SDS011;857;52.872;9.692;2023-11-19T11:43:02;15.37;;;4.37;;
1719;SDS011;857;52.872;9.692;2023-11-19T11:45:34;12.60;;;3.93;;
1719;SDS011;857;52.872;9.692;2023-11-19T11:48:10;18.93;;;4.50;;
1719;SDS011;857;52.872;9.692;2023-11-19T11:50:52;15.80;;;4.43;;
1719;SDS011;857;52.872;9.692;2023-11-19T11:53:20;15.30;;;5.30;;
1719;SDS011;857;52.872;9.692;2023-11-19T11:55:56;21.13;;;5.10;;
1719;SDS011;857;52.872;9.692;2023-11-19T11:58:35;18.83;;;4.67;;
1719;SDS011;857;52.872;9.692;2023-11-19T12:01:04;14.10;;;3.83;;
1719;SDS011;857;52.872;9.692;2023-11-19T12:03:33;18.00;;;3.93;;
1719;SDS011;857;52.872;9.692;2023-11-19T12:06:02;13.40;;;4.23;;
1719;SDS011;857;52.872;9.692;2023-11-19T12:08:29;21.27;;;5.80;;
1719;SDS011;857;52.872;9.692;2023-11-19T12:10:58;14.93;;;4.20;;
1719;SDS011;857;52.872;9.692;2023-11-19T12:13:29;10.07;;;3.33;;
1719;SDS011;857;52.872;9.692;2023-11-19T12:16:10;11.70;;;3.63;;
1719;SDS011;857;52.872;9.692;2023-11-19T12:18:40;20.77;;;5.37;;
1719;SDS011;857;52.872;9.692;2023-11-19T12:21:08;14.70;;;4.97;;
1719;SDS011;857;52.872;9.692;2023-11-19T12:23:45;10.40;;;3.00;;
1719;SDS011;857;52.872;9.692;2023-11-19T12:26:32;14.30;;;4.67;;
1719;SDS011;857;52.872;9.692;2023-11-19T12:29:00;20.07;;;6.00;;
1719;SDS011;857;52.872;9.692;2023-11-19T12:31:32;20.77;;;6.10;;
1719;SDS011;857;52.872;9.692;2023-11-19T12:34:06;25.23;;;5.40;;
1719;SDS011;857;52.872;9.692;2023-11-19T12:36:38;24.40;;;5.97;;
1719;SDS011;857;52.872;9.692;2023-11-19T12:39:05;24.30;;;5.60;;
1719;SDS011;857;52.872;9.692;2023-11-19T12:41:40;17.87;;;5.97;;
1719;SDS011;857;52.872;9.692;2023-11-19T12:44:15;18.57;;;5.10;;
1719;SDS011;857;52.872;9.692;2023-11-19T12:46:43;25.77;;;5.30;;
1719;SDS011;857;52.872;9.692;2023-11-19T12:49:22;20.80;;;6.47;;
1719;SDS011;857;52.872;9.692;2023-11-19T12:51:50;22.57;;;6.00;;
1719;SDS011;857;52.872;9.692;2023-11-19T12:54:17;19.03;;;6.70;;
1719;SDS011;857;52.872;9.692;2023-11-19T12:56:51;24.93;;;6.03;;
1719;SDS011;857;52.872;9.692;2023-11-19T12:59:19;16.50;;;5.90;;
1719;SDS011;857;52.872;9.692;2023-11-19T13:01:55;30.70;;;6.40;;
1719;SDS011;857;52.872;9.692;2023-11-19T13:04:27;25.57;;;6.23;;
1719;SDS011;857;52.872;9.692;2023-11-19T13:06:56;22.40;;;5.20;;
1719;SDS011;857;52.872;9.692;2023-11-19T13:09:23;24.43;;;5.90;;
1719;SDS011;857;52.872;9.692;2023-11-19T13:11:51;26.73;;;6.37;;
1719;SDS011;857;52.872;9.692;2023-11-19T13:14:19;13.97;;;5.23;;
1719;SDS011;857;52.872;9.692;2023-11-19T13:16:47;15.73;;;5.20;;
1719;SDS011;857;52.872;9.692;2023-11-19T13:19:16;16.40;;;5.30;;
1719;SDS011;857;52.872;9.692;2023-11-19T13:21:46;24.67;;;5.57;;
1719;SDS011;857;52.872;9.692;2023-11-19T13:24:14;18.37;;;5.80;;
1719;SDS011;857;52.872;9.692;2023-11-19T13:26:41;14.20;;;4.00;;
1719;SDS011;857;52.872;9.692;2023-11-19T13:29:09;18.90;;;6.37;;
1719;SDS011;857;52.872;9.692;2023-11-19T13:31:37;12.93;;;5.40;;
1719;SDS011;857;52.872;9.692;2023-11-19T13:34:04;22.60;;;5.50;;
1719;SDS011;857;52.872;9.692;2023-11-19T13:36:33;14.10;;;5.10;;
1719;SDS011;857;52.872;9.692;2023-11-19T13:39:02;17.77;;;4.93;;
1719;SDS011;857;52.872;9.692;2023-11-19T13:41:30;22.37;;;5.90;;
1719;SDS011;857;52.872;9.692;2023-11-19T13:43:58;12.07;;;5.10;;
1719;SDS011;857;52.872;9.692;2023-11-19T13:46:26;13.27;;;4.83;;
1719;SDS011;857;52.872;9.692;2023-11-19T13:48:54;12.70;;;5.20;;
1719;SDS011;857;52.872;9.692;2023-11-19T13:51:22;12.13;;;3.47;;
1719;SDS011;857;52.872;9.692;2023-11-19T13:53:49;16.80;;;4.50;;
1719;SDS011;857;52.872;9.692;2023-11-19T13:56:18;30.97;;;5.60;;
1719;SDS011;857;52.872;9.692;2023-11-19T13:58:46;22.30;;;7.00;;
1719;SDS011;857;52.872;9.692;2023-11-19T14:01:14;18.47;;;5.20;;
1719;SDS011;857;52.872;9.692;2023-11-19T14:03:41;17.43;;;7.23;;
1719;SDS011;857;52.872;9.692;2023-11-19T14:06:09;18.53;;;6.40;;
1719;SDS011;857;52.872;9.692;2023-11-19T14:08:38;19.27;;;5.27;;
1719;SDS011;857;52.872;9.692;2023-11-19T14:11:06;19.10;;;4.87;;
1719;SDS011;857;52.872;9.692;2023-11-19T14:13:35;18.60;;;5.83;;
1719;SDS011;857;52.872;9.692;2023-11-19T14:16:03;15.57;;;4.27;;
1719;SDS011;857;52.872;9.692;2023-11-19T14:18:33;15.90;;;3.90;;
1719;SDS011;857;52.872;9.692;2023-11-19T14:21:01;10.00;;;4.10;;
1719;SDS011;857;52.872;9.692;2023-11-19T14:23:30;7.63;;;2.93;;
1719;SDS011;857;52.872;9.692;2023-11-19T14:25:58;9.23;;;3.73;;
1719;SDS011;857;52.872;9.692;2023-11-19T14:28:25;9.70;;;4.00;;
1719;SDS011;857;52.872;9.692;2023-11-19T14:30:54;8.17;;;3.47;;
1719;SDS011;857;52.872;9.692;2023-11-19T14:33:22;10.43;;;3.70;;
1719;SDS011;857;52.872;9.692;2023-11-19T14:35:50;10.67;;;3.97;;
1719;SDS011;857;52.872;9.692;2023-11-19T14:38:19;9.50;;;3.70;;
1719;SDS011;857;52.872;9.692;2023-11-19T14:40:46;6.07;;;3.33;;
1719;SDS011;857;52.872;9.692;2023-11-19T14:43:14;11.97;;;4.00;;
1719;SDS011;857;52.872;9.692;2023-11-19T14:45:42;10.93;;;4.40;;
1719;SDS011;857;52.872;9.692;2023-11-19T14:48:11;13.50;;;4.90;;
1719;SDS011;857;52.872;9.692;2023-11-19T14:50:39;10.23;;;4.63;;
1719;SDS011;857;52.872;9.692;2023-11-19T14:53:07;14.03;;;4.40;;
1719;SDS011;857;52.872;9.692;2023-11-19T14:55:35;12.03;;;4.23;;
1719;SDS011;857;52.872;9.692;2023-11-19T14:58:02;11.67;;;4.13;;
1719;SDS011;857;52.872;9.692;2023-11-19T15:00:30;17.93;;;5.00;;
1719;SDS011;857;52.872;9.692;2023-11-19T15:02:57;12.00;;;4.87;;
1719;SDS011;857;52.872;9.692;2023-11-19T15:05:26;21.57;;;5.40;;
1719;SDS011;857;52.872;9.692;2023-11-19T15:07:55;17.13;;;6.17;;
1719;SDS011;857;52.872;9.692;2023-11-19T15:10:22;20.17;;;4.83;;
1719;SDS011;857;52.872;9.692;2023-11-19T15:12:50;16.53;;;5.17;;
1719;SDS011;857;52.872;9.692;2023-11-19T15:15:18;17.20;;;4.83;;
1719;SDS011;857;52.872;9.692;2023-11-19T15:17:46;15.60;;;5.23;;
1719;SDS011;857;52.872;9.692;2023-11-19T15:20:14;21.17;;;4.87;;
1719;SDS011;857;52.872;9.692;2023-11-19T15:22:45;8.70;;;4.83;;
1719;SDS011;857;52.872;9.692;2023-11-19T15:25:12;17.33;;;5.13;;
1719;SDS011;857;52.872;9.692;2023-11-19T15:27:40;17.63;;;5.20;;